sensor_id;sensor_type;location;lat;lon;timestamp;temperature;humidity
2929;DHT22;1474;51.460;7.150;2023-08-01T04:32:00;16.20;91.80
2929;DHT22;1474;51.460;7.150;2023-08-01T04:36:18;16.20;91.80
2929;DHT22;1474;51.460;7.150;2023-08-01T04:38:47;16.20;91.60
2929;DHT22;1474;51.460;7.150;2023-08-01T04:41:13;16.20;91.60
2929;DHT22;1474;51.460;7.150;2023-08-01T04:43:40;16.20;91.60
2929;DHT22;1474;51.460;7.150;2023-08-01T04:46:06;16.20;91.60
2929;DHT22;1474;51.460;7.150;2023-08-01T04:48:32;16.30;91.40
2929;DHT22;1474;51.460;7.150;2023-08-01T04:50:58;16.30;91.40
2929;DHT22;1474;51.460;7.150;2023-08-01T04:53:24;16.30;91.30
2929;DHT22;1474;51.460;7.150;2023-08-01T04:55:53;16.30;91.20
2929;DHT22;1474;51.460;7.150;2023-08-01T04:58:18;16.30;91.20
2929;DHT22;1474;51.460;7.150;2023-08-01T05:00:44;16.30;91.20
2929;DHT22;1474;51.460;7.150;2023-08-01T05:03:10;16.40;91.10
2929;DHT22;1474;51.460;7.150;2023-08-01T05:05:36;16.40;91.20
2929;DHT22;1474;51.460;7.150;2023-08-01T05:08:02;16.40;91.20
2929;DHT22;1474;51.460;7.150;2023-08-01T05:10:28;16.40;91.20
2929;DHT22;1474;51.460;7.150;2023-08-01T05:12:54;16.30;91.30
2929;DHT22;1474;51.460;7.150;2023-08-01T05:15:20;16.30;91.20
2929;DHT22;1474;51.460;7.150;2023-08-01T05:17:45;16.30;91.30
2929;DHT22;1474;51.460;7.150;2023-08-01T05:20:11;16.40;91.30
2929;DHT22;1474;51.460;7.150;2023-08-01T05:22:37;16.30;91.30
2929;DHT22;1474;51.460;7.150;2023-08-01T05:25:03;16.40;91.40
2929;DHT22;1474;51.460;7.150;2023-08-01T05:27:30;16.30;91.30
2929;DHT22;1474;51.460;7.150;2023-08-01T05:29:56;16.30;91.30
2929;DHT22;1474;51.460;7.150;2023-08-01T05:32:21;16.30;91.20
2929;DHT22;1474;51.460;7.150;2023-08-01T05:34:47;16.30;91.00
2929;DHT22;1474;51.460;7.150;2023-08-01T05:37:13;16.30;91.20
2929;DHT22;1474;51.460;7.150;2023-08-01T05:39:39;16.30;91.20
2929;DHT22;1474;51.460;7.150;2023-08-01T05:42:05;16.40;91.30
2929;DHT22;1474;51.460;7.150;2023-08-01T05:44:34;16.40;91.30
2929;DHT22;1474;51.460;7.150;2023-08-01T05:47:00;16.40;91.40
2929;DHT22;1474;51.460;7.150;2023-08-01T05:49:25;16.40;91.40
2929;DHT22;1474;51.460;7.150;2023-08-01T05:51:51;16.40;91.30
2929;DHT22;1474;51.460;7.150;2023-08-01T05:54:20;16.40;91.40
2929;DHT22;1474;51.460;7.150;2023-08-01T05:56:48;16.40;91.20
2929;DHT22;1474;51.460;7.150;2023-08-01T05:59:14;16.40;91.30
2929;DHT22;1474;51.460;7.150;2023-08-01T06:01:39;16.40;91.40
2929;DHT22;1474;51.460;7.150;2023-08-01T06:04:05;16.40;91.30
2929;DHT22;1474;51.460;7.150;2023-08-01T06:06:31;16.40;91.30
2929;DHT22;1474;51.460;7.150;2023-08-01T06:08:57;16.50;91.40
2929;DHT22;1474;51.460;7.150;2023-08-01T06:11:22;16.50;91.30
2929;DHT22;1474;51.460;7.150;2023-08-01T06:13:48;16.60;91.20
2929;DHT22;1474;51.460;7.150;2023-08-01T06:16:14;16.50;91.20
2929;DHT22;1474;51.460;7.150;2023-08-01T06:18:40;16.50;91.10
2929;DHT22;1474;51.460;7.150;2023-08-01T06:21:06;16.60;91.20
2929;DHT22;1474;51.460;7.150;2023-08-01T06:23:31;16.50;91.00
2929;DHT22;1474;51.460;7.150;2023-08-01T06:25:57;16.50;91.00
2929;DHT22;1474;51.460;7.150;2023-08-01T06:28:23;16.50;91.10
2929;DHT22;1474;51.460;7.150;2023-08-01T06:30:52;16.50;91.20
2929;DHT22;1474;51.460;7.150;2023-08-01T06:33:17;16.50;91.10
2929;DHT22;1474;51.460;7.150;2023-08-01T06:35:43;16.60;91.10
2929;DHT22;1474;51.460;7.150;2023-08-01T06:38:09;16.70;91.40
2929;DHT22;1474;51.460;7.150;2023-08-01T06:40:34;16.70;91.10
2929;DHT22;1474;51.460;7.150;2023-08-01T06:43:00;16.80;91.00
2929;DHT22;1474;51.460;7.150;2023-08-01T06:45:26;16.90;90.90
2929;DHT22;1474;51.460;7.150;2023-08-01T06:47:52;16.90;90.80
2929;DHT22;1474;51.460;7.150;2023-08-01T06:50:17;16.90;90.80
2929;DHT22;1474;51.460;7.150;2023-08-01T06:52:43;16.90;90.40
2929;DHT22;1474;51.460;7.150;2023-08-01T06:55:09;16.90;90.50
2929;DHT22;1474;51.460;7.150;2023-08-01T06:57:35;17.00;90.60
2929;DHT22;1474;51.460;7.150;2023-08-01T07:00:01;17.00;90.60
2929;DHT22;1474;51.460;7.150;2023-08-01T07:02:26;17.00;90.70
2929;DHT22;1474;51.460;7.150;2023-08-01T07:04:52;17.00;90.80
2929;DHT22;1474;51.460;7.150;2023-08-01T07:07:18;17.10;90.90
2929;DHT22;1474;51.460;7.150;2023-08-01T07:09:44;17.10;90.80
2929;DHT22;1474;51.460;7.150;2023-08-01T07:12:09;17.10;90.50
2929;DHT22;1474;51.460;7.150;2023-08-01T07:14:35;17.10;90.60
2929;DHT22;1474;51.460;7.150;2023-08-01T07:17:01;17.10;90.50
2929;DHT22;1474;51.460;7.150;2023-08-01T07:19:27;17.10;90.60
2929;DHT22;1474;51.460;7.150;2023-08-01T07:21:53;17.20;90.50
2929;DHT22;1474;51.460;7.150;2023-08-01T07:24:19;17.20;90.40
2929;DHT22;1474;51.460;7.150;2023-08-01T07:26:44;17.20;90.50
2929;DHT22;1474;51.460;7.150;2023-08-01T07:29:10;17.30;90.50
2929;DHT22;1474;51.460;7.150;2023-08-01T07:31:37;17.30;90.60
2929;DHT22;1474;51.460;7.150;2023-08-01T07:34:03;17.40;90.40
2929;DHT22;1474;51.460;7.150;2023-08-01T07:36:29;17.40;89.70
2929;DHT22;1474;51.460;7.150;2023-08-01T07:38:54;17.40;89.50
2929;DHT22;1474;51.460;7.150;2023-08-01T07:41:21;17.30;89.10
2929;DHT22;1474;51.460;7.150;2023-08-01T07:43:47;17.40;89.30
2929;DHT22;1474;51.460;7.150;2023-08-01T07:46:14;17.40;90.00
2929;DHT22;1474;51.460;7.150;2023-08-01T07:48:40;17.50;90.30
2929;DHT22;1474;51.460;7.150;2023-08-01T07:51:05;17.50;89.80
2929;DHT22;1474;51.460;7.150;2023-08-01T07:53:33;17.50;88.80
2929;DHT22;1474;51.460;7.150;2023-08-01T07:56:00;17.50;89.20
2929;DHT22;1474;51.460;7.150;2023-08-01T07:58:28;17.50;88.80
2929;DHT22;1474;51.460;7.150;2023-08-01T08:00:54;17.60;89.50
2929;DHT22;1474;51.460;7.150;2023-08-01T08:03:19;17.70;88.70
2929;DHT22;1474;51.460;7.150;2023-08-01T08:05:48;17.70;89.00
2929;DHT22;1474;51.460;7.150;2023-08-01T08:08:14;17.80;89.20
2929;DHT22;1474;51.460;7.150;2023-08-01T08:10:40;17.80;88.10
2929;DHT22;1474;51.460;7.150;2023-08-01T08:13:06;17.80;88.00
2929;DHT22;1474;51.460;7.150;2023-08-01T08:15:31;17.80;88.80
2929;DHT22;1474;51.460;7.150;2023-08-01T08:18:00;17.80;88.20
2929;DHT22;1474;51.460;7.150;2023-08-01T08:20:34;17.90;88.20
2929;DHT22;1474;51.460;7.150;2023-08-01T08:23:06;18.00;88.20
2929;DHT22;1474;51.460;7.150;2023-08-01T08:25:32;18.10;88.90
2929;DHT22;1474;51.460;7.150;2023-08-01T08:27:58;18.20;88.50
2929;DHT22;1474;51.460;7.150;2023-08-01T08:30:24;18.30;89.10
2929;DHT22;1474;51.460;7.150;2023-08-01T08:32:50;18.40;87.40
2929;DHT22;1474;51.460;7.150;2023-08-01T08:35:16;18.60;87.20
2929;DHT22;1474;51.460;7.150;2023-08-01T08:37:42;18.70;87.60
2929;DHT22;1474;51.460;7.150;2023-08-01T08:40:08;18.80;84.00
2929;DHT22;1474;51.460;7.150;2023-08-01T08:42:34;19.00;85.40
2929;DHT22;1474;51.460;7.150;2023-08-01T08:45:04;18.90;83.10
2929;DHT22;1474;51.460;7.150;2023-08-01T08:47:36;18.90;82.60
2929;DHT22;1474;51.460;7.150;2023-08-01T08:50:08;18.80;82.90
2929;DHT22;1474;51.460;7.150;2023-08-01T08:52:34;18.80;82.80
2929;DHT22;1474;51.460;7.150;2023-08-01T08:55:01;18.80;83.50
2929;DHT22;1474;51.460;7.150;2023-08-01T08:57:29;18.80;83.80
2929;DHT22;1474;51.460;7.150;2023-08-01T08:59:56;18.80;84.20
2929;DHT22;1474;51.460;7.150;2023-08-01T09:02:26;18.80;83.00
2929;DHT22;1474;51.460;7.150;2023-08-01T09:04:53;18.80;83.20
2929;DHT22;1474;51.460;7.150;2023-08-01T09:07:20;18.80;84.90
2929;DHT22;1474;51.460;7.150;2023-08-01T09:09:49;18.80;85.20
2929;DHT22;1474;51.460;7.150;2023-08-01T09:12:15;18.90;85.50
2929;DHT22;1474;51.460;7.150;2023-08-01T09:14:41;19.00;85.80
2929;DHT22;1474;51.460;7.150;2023-08-01T09:17:08;19.20;83.40
2929;DHT22;1474;51.460;7.150;2023-08-01T09:19:35;19.30;83.80
2929;DHT22;1474;51.460;7.150;2023-08-01T09:22:01;19.40;82.00
2929;DHT22;1474;51.460;7.150;2023-08-01T09:24:28;19.60;81.10
2929;DHT22;1474;51.460;7.150;2023-08-01T09:27:02;19.70;81.60
2929;DHT22;1474;51.460;7.150;2023-08-01T09:29:33;19.80;78.40
2929;DHT22;1474;51.460;7.150;2023-08-01T09:31:59;20.00;80.40
2929;DHT22;1474;51.460;7.150;2023-08-01T09:34:26;20.10;79.60
2929;DHT22;1474;51.460;7.150;2023-08-01T09:36:59;20.30;79.00
2929;DHT22;1474;51.460;7.150;2023-08-01T09:39:26;20.50;77.80
2929;DHT22;1474;51.460;7.150;2023-08-01T09:41:59;20.70;77.70
2929;DHT22;1474;51.460;7.150;2023-08-01T09:44:27;21.00;75.90
2929;DHT22;1474;51.460;7.150;2023-08-01T09:47:01;21.20;74.50
2929;DHT22;1474;51.460;7.150;2023-08-01T09:49:29;21.30;74.00
2929;DHT22;1474;51.460;7.150;2023-08-01T09:51:56;21.30;74.10
2929;DHT22;1474;51.460;7.150;2023-08-01T09:54:23;21.30;73.60
2929;DHT22;1474;51.460;7.150;2023-08-01T09:56:51;21.50;71.80
2929;DHT22;1474;51.460;7.150;2023-08-01T09:59:25;21.60;71.90
2929;DHT22;1474;51.460;7.150;2023-08-01T10:01:54;21.60;70.30
2929;DHT22;1474;51.460;7.150;2023-08-01T10:04:28;21.60;72.50
2929;DHT22;1474;51.460;7.150;2023-08-01T10:07:03;21.70;70.50
2929;DHT22;1474;51.460;7.150;2023-08-01T10:09:34;21.70;70.30
2929;DHT22;1474;51.460;7.150;2023-08-01T10:12:02;21.80;69.30
2929;DHT22;1474;51.460;7.150;2023-08-01T10:14:32;21.80;68.90
2929;DHT22;1474;51.460;7.150;2023-08-01T10:16:58;21.60;70.70
2929;DHT22;1474;51.460;7.150;2023-08-01T10:19:24;21.20;74.10
2929;DHT22;1474;51.460;7.150;2023-08-01T10:21:52;20.90;75.00
2929;DHT22;1474;51.460;7.150;2023-08-01T10:24:19;20.50;76.50
2929;DHT22;1474;51.460;7.150;2023-08-01T10:26:45;20.40;77.30
2929;DHT22;1474;51.460;7.150;2023-08-01T10:29:12;20.30;78.90
2929;DHT22;1474;51.460;7.150;2023-08-01T10:31:38;20.30;79.60
2929;DHT22;1474;51.460;7.150;2023-08-01T10:34:12;20.30;80.00
2929;DHT22;1474;51.460;7.150;2023-08-01T10:36:39;20.20;80.00
2929;DHT22;1474;51.460;7.150;2023-08-01T10:39:04;20.30;81.90
2929;DHT22;1474;51.460;7.150;2023-08-01T10:41:34;20.50;81.00
2929;DHT22;1474;51.460;7.150;2023-08-01T10:44:13;20.70;81.80
2929;DHT22;1474;51.460;7.150;2023-08-01T10:49:43;21.00;78.80
2929;DHT22;1474;51.460;7.150;2023-08-01T10:52:17;21.10;78.90
2929;DHT22;1474;51.460;7.150;2023-08-01T10:54:43;21.30;78.80
2929;DHT22;1474;51.460;7.150;2023-08-01T10:57:18;21.40;77.90
2929;DHT22;1474;51.460;7.150;2023-08-01T10:59:44;21.50;76.20
2929;DHT22;1474;51.460;7.150;2023-08-01T11:02:10;21.50;74.70
2929;DHT22;1474;51.460;7.150;2023-08-01T11:04:36;21.50;74.40
2929;DHT22;1474;51.460;7.150;2023-08-01T11:07:04;21.30;73.90
2929;DHT22;1474;51.460;7.150;2023-08-01T11:09:30;21.00;73.10
2929;DHT22;1474;51.460;7.150;2023-08-01T11:11:57;20.60;73.50
2929;DHT22;1474;51.460;7.150;2023-08-01T11:14:28;20.10;75.70
2929;DHT22;1474;51.460;7.150;2023-08-01T11:16:55;19.80;77.00
2929;DHT22;1474;51.460;7.150;2023-08-01T11:19:23;19.50;78.30
2929;DHT22;1474;51.460;7.150;2023-08-01T11:21:51;19.30;79.30
2929;DHT22;1474;51.460;7.150;2023-08-01T11:24:19;19.00;80.60
2929;DHT22;1474;51.460;7.150;2023-08-01T11:26:47;18.80;81.60
2929;DHT22;1474;51.460;7.150;2023-08-01T11:29:15;18.60;82.10
2929;DHT22;1474;51.460;7.150;2023-08-01T11:31:58;18.60;83.40
2929;DHT22;1474;51.460;7.150;2023-08-01T11:34:25;18.40;83.80
2929;DHT22;1474;51.460;7.150;2023-08-01T11:36:51;18.50;84.50
2929;DHT22;1474;51.460;7.150;2023-08-01T11:39:18;18.50;84.50
2929;DHT22;1474;51.460;7.150;2023-08-01T11:41:44;18.60;84.30
2929;DHT22;1474;51.460;7.150;2023-08-01T11:44:11;18.70;83.20
2929;DHT22;1474;51.460;7.150;2023-08-01T11:46:38;18.70;83.70
2929;DHT22;1474;51.460;7.150;2023-08-01T11:49:06;18.80;84.50
2929;DHT22;1474;51.460;7.150;2023-08-01T11:51:44;19.00;86.30
2929;DHT22;1474;51.460;7.150;2023-08-01T11:54:11;19.20;85.70
2929;DHT22;1474;51.460;7.150;2023-08-01T11:56:40;19.40;85.70
2929;DHT22;1474;51.460;7.150;2023-08-01T11:59:15;19.70;85.40
2929;DHT22;1474;51.460;7.150;2023-08-01T12:01:43;19.90;83.20
2929;DHT22;1474;51.460;7.150;2023-08-01T12:04:11;20.00;83.80
2929;DHT22;1474;51.460;7.150;2023-08-01T12:06:37;20.10;81.40
2929;DHT22;1474;51.460;7.150;2023-08-01T12:09:12;20.20;82.30
2929;DHT22;1474;51.460;7.150;2023-08-01T12:11:39;20.40;82.80
2929;DHT22;1474;51.460;7.150;2023-08-01T12:14:11;20.60;83.50
2929;DHT22;1474;51.460;7.150;2023-08-01T12:16:43;20.70;81.10
2929;DHT22;1474;51.460;7.150;2023-08-01T12:19:17;20.70;79.30
2929;DHT22;1474;51.460;7.150;2023-08-01T12:21:44;20.50;76.90
2929;DHT22;1474;51.460;7.150;2023-08-01T12:24:10;20.40;79.20
2929;DHT22;1474;51.460;7.150;2023-08-01T12:26:36;20.30;79.60
2929;DHT22;1474;51.460;7.150;2023-08-01T12:29:02;20.30;78.60
2929;DHT22;1474;51.460;7.150;2023-08-01T12:31:28;20.10;78.40
2929;DHT22;1474;51.460;7.150;2023-08-01T12:33:54;20.10;80.40
2929;DHT22;1474;51.460;7.150;2023-08-01T12:36:20;20.10;79.30
2929;DHT22;1474;51.460;7.150;2023-08-01T12:38:46;20.10;80.30
2929;DHT22;1474;51.460;7.150;2023-08-01T12:41:12;20.10;80.70
2929;DHT22;1474;51.460;7.150;2023-08-01T12:43:38;20.20;79.90
2929;DHT22;1474;51.460;7.150;2023-08-01T12:46:04;20.20;79.40
2929;DHT22;1474;51.460;7.150;2023-08-01T12:48:29;20.20;78.60
2929;DHT22;1474;51.460;7.150;2023-08-01T12:50:56;20.20;79.70
2929;DHT22;1474;51.460;7.150;2023-08-01T12:53:22;20.10;80.90
2929;DHT22;1474;51.460;7.150;2023-08-01T12:55:49;20.20;79.30
2929;DHT22;1474;51.460;7.150;2023-08-01T12:58:16;20.20;80.30
2929;DHT22;1474;51.460;7.150;2023-08-01T13:00:43;20.10;78.90
2929;DHT22;1474;51.460;7.150;2023-08-01T13:03:10;20.10;79.80
2929;DHT22;1474;51.460;7.150;2023-08-01T13:05:37;20.10;80.20
2929;DHT22;1474;51.460;7.150;2023-08-01T13:08:04;20.20;80.90
2929;DHT22;1474;51.460;7.150;2023-08-01T13:10:31;20.20;81.00
2929;DHT22;1474;51.460;7.150;2023-08-01T13:12:59;20.40;81.70
2929;DHT22;1474;51.460;7.150;2023-08-01T13:15:25;20.50;80.60
2929;DHT22;1474;51.460;7.150;2023-08-01T13:17:52;20.60;81.50
2929;DHT22;1474;51.460;7.150;2023-08-01T13:20:20;20.80;77.60
2929;DHT22;1474;51.460;7.150;2023-08-01T13:22:48;21.00;79.10
2929;DHT22;1474;51.460;7.150;2023-08-01T13:25:14;21.00;74.70
2929;DHT22;1474;51.460;7.150;2023-08-01T13:27:41;21.10;76.20
2929;DHT22;1474;51.460;7.150;2023-08-01T13:30:08;21.10;76.00
2929;DHT22;1474;51.460;7.150;2023-08-01T13:32:35;21.20;73.00
2929;DHT22;1474;51.460;7.150;2023-08-01T13:35:01;21.20;69.60
2929;DHT22;1474;51.460;7.150;2023-08-01T13:37:27;21.00;68.80
2929;DHT22;1474;51.460;7.150;2023-08-01T13:39:56;20.80;69.70
2929;DHT22;1474;51.460;7.150;2023-08-01T13:42:23;20.60;71.30
2929;DHT22;1474;51.460;7.150;2023-08-01T13:44:53;20.40;70.60
2929;DHT22;1474;51.460;7.150;2023-08-01T13:47:20;20.20;72.60
2929;DHT22;1474;51.460;7.150;2023-08-01T13:49:45;20.10;72.80
2929;DHT22;1474;51.460;7.150;2023-08-01T13:52:11;20.00;74.30
2929;DHT22;1474;51.460;7.150;2023-08-01T13:54:37;19.90;74.90
2929;DHT22;1474;51.460;7.150;2023-08-01T13:57:03;20.00;76.20
2929;DHT22;1474;51.460;7.150;2023-08-01T13:59:29;20.00;74.90
2929;DHT22;1474;51.460;7.150;2023-08-01T14:01:55;20.10;76.20
2929;DHT22;1474;51.460;7.150;2023-08-01T14:04:21;20.20;75.30
2929;DHT22;1474;51.460;7.150;2023-08-01T14:06:47;20.30;75.00
2929;DHT22;1474;51.460;7.150;2023-08-01T14:09:13;20.40;76.10
2929;DHT22;1474;51.460;7.150;2023-08-01T14:11:39;20.50;76.70
2929;DHT22;1474;51.460;7.150;2023-08-01T14:14:05;20.80;74.90
2929;DHT22;1474;51.460;7.150;2023-08-01T14:16:31;21.00;74.20
2929;DHT22;1474;51.460;7.150;2023-08-01T14:18:58;21.20;73.00
2929;DHT22;1474;51.460;7.150;2023-08-01T14:21:24;21.40;73.20
2929;DHT22;1474;51.460;7.150;2023-08-01T14:23:50;21.60;71.90
2929;DHT22;1474;51.460;7.150;2023-08-01T14:26:16;21.70;71.50
2929;DHT22;1474;51.460;7.150;2023-08-01T14:28:42;21.90;70.70
2929;DHT22;1474;51.460;7.150;2023-08-01T14:31:07;21.90;68.90
2929;DHT22;1474;51.460;7.150;2023-08-01T14:33:34;22.00;66.80
2929;DHT22;1474;51.460;7.150;2023-08-01T14:36:00;22.00;68.50
2929;DHT22;1474;51.460;7.150;2023-08-01T14:38:25;22.00;68.00
2929;DHT22;1474;51.460;7.150;2023-08-01T14:40:54;21.90;67.30
2929;DHT22;1474;51.460;7.150;2023-08-01T14:43:20;21.80;67.40
2929;DHT22;1474;51.460;7.150;2023-08-01T14:45:46;21.80;68.30
2929;DHT22;1474;51.460;7.150;2023-08-01T14:48:12;21.70;68.30
2929;DHT22;1474;51.460;7.150;2023-08-01T14:50:38;21.70;67.50
2929;DHT22;1474;51.460;7.150;2023-08-01T14:53:04;21.80;69.20
2929;DHT22;1474;51.460;7.150;2023-08-01T14:55:32;21.90;68.60
2929;DHT22;1474;51.460;7.150;2023-08-01T14:57:59;22.00;67.20
2929;DHT22;1474;51.460;7.150;2023-08-01T15:00:25;22.20;67.50
2929;DHT22;1474;51.460;7.150;2023-08-01T15:02:51;22.20;67.00
2929;DHT22;1474;51.460;7.150;2023-08-01T15:05:17;22.30;67.10
2929;DHT22;1474;51.460;7.150;2023-08-01T15:07:43;22.20;66.30
2929;DHT22;1474;51.460;7.150;2023-08-01T15:10:09;22.10;66.60
2929;DHT22;1474;51.460;7.150;2023-08-01T15:12:36;22.00;66.00
2929;DHT22;1474;51.460;7.150;2023-08-01T15:15:03;21.90;64.70
2929;DHT22;1474;51.460;7.150;2023-08-01T15:17:30;21.80;66.00
2929;DHT22;1474;51.460;7.150;2023-08-01T15:19:56;21.50;64.90
2929;DHT22;1474;51.460;7.150;2023-08-01T15:22:21;21.30;65.90
2929;DHT22;1474;51.460;7.150;2023-08-01T15:24:48;21.20;65.70
2929;DHT22;1474;51.460;7.150;2023-08-01T15:27:14;21.20;64.40
2929;DHT22;1474;51.460;7.150;2023-08-01T15:29:40;21.10;66.50
2929;DHT22;1474;51.460;7.150;2023-08-01T15:32:06;21.00;65.90
2929;DHT22;1474;51.460;7.150;2023-08-01T15:34:32;21.10;67.70
2929;DHT22;1474;51.460;7.150;2023-08-01T15:36:58;21.20;66.60
2929;DHT22;1474;51.460;7.150;2023-08-01T15:39:23;21.30;67.50
2929;DHT22;1474;51.460;7.150;2023-08-01T15:41:49;21.40;66.90
2929;DHT22;1474;51.460;7.150;2023-08-01T15:44:15;21.50;64.20
2929;DHT22;1474;51.460;7.150;2023-08-01T15:46:41;21.70;64.30
2929;DHT22;1474;51.460;7.150;2023-08-01T15:49:07;21.80;62.90
2929;DHT22;1474;51.460;7.150;2023-08-01T15:51:33;21.80;63.30
2929;DHT22;1474;51.460;7.150;2023-08-01T15:53:59;21.80;63.20
2929;DHT22;1474;51.460;7.150;2023-08-01T15:56:25;21.70;63.40
2929;DHT22;1474;51.460;7.150;2023-08-01T15:58:51;21.70;62.90
2929;DHT22;1474;51.460;7.150;2023-08-01T16:01:17;21.60;63.80
2929;DHT22;1474;51.460;7.150;2023-08-01T16:03:43;21.70;64.10
2929;DHT22;1474;51.460;7.150;2023-08-01T16:06:10;21.80;62.70
2929;DHT22;1474;51.460;7.150;2023-08-01T16:08:38;21.90;62.80
2929;DHT22;1474;51.460;7.150;2023-08-01T16:11:04;21.90;62.30
2929;DHT22;1474;51.460;7.150;2023-08-01T16:13:30;21.90;62.80
2929;DHT22;1474;51.460;7.150;2023-08-01T16:15:56;22.00;62.20
2929;DHT22;1474;51.460;7.150;2023-08-01T16:18:22;22.00;62.10
2929;DHT22;1474;51.460;7.150;2023-08-01T16:20:47;22.10;62.20
2929;DHT22;1474;51.460;7.150;2023-08-01T16:23:13;22.10;60.50
2929;DHT22;1474;51.460;7.150;2023-08-01T16:25:40;22.10;58.40
2929;DHT22;1474;51.460;7.150;2023-08-01T16:28:06;22.00;60.40
2929;DHT22;1474;51.460;7.150;2023-08-01T17:00:26;21.50;57.00
2929;DHT22;1474;51.460;7.150;2023-08-01T17:04:17;21.40;59.70
2929;DHT22;1474;51.460;7.150;2023-08-01T17:11:56;21.40;59.50
2929;DHT22;1474;51.460;7.150;2023-08-01T23:08:19;17.20;79.10
2929;DHT22;1474;51.460;7.150;2023-08-01T23:10:45;17.10;79.10
2929;DHT22;1474;51.460;7.150;2023-08-01T23:13:11;17.10;79.00
2929;DHT22;1474;51.460;7.150;2023-08-01T23:15:37;17.10;78.80
2929;DHT22;1474;51.460;7.150;2023-08-01T23:18:03;17.10;79.10
2929;DHT22;1474;51.460;7.150;2023-08-01T23:20:28;17.10;79.40
2929;DHT22;1474;51.460;7.150;2023-08-01T23:22:54;17.10;79.30
2929;DHT22;1474;51.460;7.150;2023-08-01T23:25:20;17.10;79.40
2929;DHT22;1474;51.460;7.150;2023-08-01T23:27:45;17.20;79.30
2929;DHT22;1474;51.460;7.150;2023-08-01T23:30:11;17.10;79.30
2929;DHT22;1474;51.460;7.150;2023-08-01T23:32:37;17.10;79.30
2929;DHT22;1474;51.460;7.150;2023-08-01T23:35:03;17.10;79.10
2929;DHT22;1474;51.460;7.150;2023-08-01T23:37:29;17.10;79.40
2929;DHT22;1474;51.460;7.150;2023-08-01T23:39:55;17.10;79.50
2929;DHT22;1474;51.460;7.150;2023-08-01T23:42:20;17.10;79.80
2929;DHT22;1474;51.460;7.150;2023-08-01T23:44:46;17.00;80.00
2929;DHT22;1474;51.460;7.150;2023-08-01T23:47:12;17.00;80.30
2929;DHT22;1474;51.460;7.150;2023-08-01T23:49:37;16.90;80.50
2929;DHT22;1474;51.460;7.150;2023-08-01T23:52:03;16.90;80.70
2929;DHT22;1474;51.460;7.150;2023-08-01T23:54:30;16.90;80.80
2929;DHT22;1474;51.460;7.150;2023-08-01T23:56:55;16.80;81.10
2929;DHT22;1474;51.460;7.150;2023-08-01T23:59:21;16.80;81.10
